Time;durP1;ratioP1;P1;durP2;ratioP2;P2;SDS_P1;SDS_P2;PMS_P1;PMS_P2;Temp;Humidity;BMP_temperature;BMP_pressure;BME280_temperature;BME280_humidity;BME280_pressure;Samples;Min_cycle;Max_cycle;Signal;HPM_P1;HPM_P2
2022/07/14 00:01:14;;;;;;;;;;;;;;;;;;4990258;28;857;-71
2022/07/14 00:03:40;;;;;;;;;;;;;;;;;;4984576;28;1224;-71
2022/07/14 00:06:08;;;;;;;;;;;;;;;;;;5003806;28;1818;-71
2022/07/14 00:08:35;;;;;;;;;;;;;;;;;;5005237;28;983;-71
2022/07/14 00:11:01;;;;;;;;;;;;;;;;;;5000018;28;1946;-69
2022/07/14 00:13:28;;;;;;;;;;;;;;;;;;5002028;28;989;-72
2022/07/14 00:15:54;;;;;;;;;;;;;;;;;;5009099;28;1301;-71
2022/07/14 00:18:21;;;;;;;;;;;;;;;;;;5008222;28;821;-71
2022/07/14 00:20:47;;;;;;;;;;;;;;;;;;5009409;28;865;-70
2022/07/14 00:23:15;;;;;;;;;;;;;;;;;;5009601;28;869;-73
2022/07/14 00:25:42;;;;;;;;;;;;;;;;;;5005637;28;1388;-73
2022/07/14 00:28:08;;;;;;;;;;;;;;;;;;4996563;28;961;-72
2022/07/14 00:30:35;;;;;;;;;;;;;;;;;;5004486;28;2036;-74
2022/07/14 00:33:02;;;;;;;;;;;;;;;;;;5004448;28;2014;-72
2022/07/14 00:35:29;;;;;;;;;;;;;;;;;;5005195;28;1357;-73
2022/07/14 00:37:55;;;;;;;;;;;;;;;;;;5007914;28;876;-73
2022/07/14 00:40:23;;;;;;;;;;;;;;;;;;5003782;28;1767;-72
2022/07/14 00:42:51;;;;;;;;;;;;;;;;;;5005313;28;806;-73
2022/07/14 00:45:19;;;;;;;;;;;;;;;;;;4998352;28;1381;-73
2022/07/14 00:47:46;;;;;;;;;;;;;;;;;;4995260;28;1218;-73
2022/07/14 00:50:13;;;;;;;;;;;;;;;;;;5007477;28;794;-72
2022/07/14 00:52:40;;;;;;;;;;;;;;;;;;5008022;28;1942;-72
2022/07/14 00:55:07;;;;;;;;;;;;;;;;;;5005446;28;1386;-72
2022/07/14 00:57:35;;;;;;;;;;;;;;;;;;5004579;28;1122;-71
2022/07/14 01:00:02;;;;;;;;;;;;;;;;;;5005224;28;902;-71
2022/07/14 01:02:28;;;;;;;;;;;;;;;;;;5000995;28;816;-71
2022/07/14 01:04:55;;;;;;;;;;;;;;;;;;4998236;28;1376;-71
2022/07/14 01:07:22;;;;;;;;;;;;;;;;;;5004698;28;975;-71
2022/07/14 01:09:48;;;;;;;;;;;;;;;;;;5007707;28;1476;-72
2022/07/14 01:12:15;;;;;;;;;;;;;;;;;;5003096;28;2005;-72
2022/07/14 01:14:42;;;;;;;;;;;;;;;;;;5005120;28;1309;-73
2022/07/14 01:17:09;;;;;;;;;;;;;;;;;;5002343;28;1257;-73
2022/07/14 01:19:36;;;;;;;;;;;;;;;;;;5003759;28;1354;-72
2022/07/14 01:22:04;;;;;;;;;;;;;;;;;;4999115;28;861;-72
2022/07/14 01:24:32;;;;;;;;;;;;;;;;;;5004277;28;1292;-72
2022/07/14 01:26:58;;;;;;;;;;;;;;;;;;5003981;28;801;-72
2022/07/14 01:29:26;;;;;;;;;;;;;;;;;;5006107;28;789;-72
2022/07/14 01:31:52;;;;;;;;;;;;;;;;;;5004045;28;1946;-72
2022/07/14 01:34:19;;;;;;;;;;;;;;;;;;5002404;28;1377;-72
2022/07/14 01:36:45;;;;;;;;;;;;;;;;;;5028108;28;866;-72
2022/07/14 01:39:13;;;;;;;;;;;;;;;;;;5010879;28;1143;-72
2022/07/14 01:41:40;;;;;;;;;;;;;;;;;;5019073;28;969;-72
2022/07/14 01:44:06;;;;;;;;;;;;;;;;;;5025796;28;1368;-72
2022/07/14 01:46:33;;;;;;;;;;;;;;;;;;5026136;28;1454;-73
2022/07/14 01:49:02;;;;;;;;;;;;;;;;;;5022529;28;935;-73
2022/07/14 01:51:29;;;;;;;;;;;;;;;;;;5021329;28;1992;-72
2022/07/14 01:53:56;;;;;;;;;;;;;;;;;;5026323;28;1435;-73
2022/07/14 01:56:24;;;;;;;;;;;;;;;;;;5015521;28;1206;-72
2022/07/14 01:58:53;;;;;;;;;;;;;;;;;;5015970;28;1342;-72
2022/07/14 02:04:04;;;;;;;;;;;;;;;;;;5035646;22;3683;-75
2022/07/14 02:06:31;;;;;;;;;;;;;;;;;;5021035;28;893;-74
2022/07/14 02:08:58;;;;;;;;;;;;;;;;;;5071830;28;1190;-75
2022/07/14 02:14:10;;;;;;;;;;;;;;;;;;5000131;28;1508;-77
2022/07/14 02:16:36;;;;;;;;;;;;;;;;;;4995985;28;1265;-74
2022/07/14 02:19:03;;;;;;;;;;;;;;;;;;4993613;28;931;-75
2022/07/14 02:21:30;;;;;;;;;;;;;;;;;;4994695;28;1167;-75
2022/07/14 02:23:56;;;;;;;;;;;;;;;;;;4986305;28;1384;-75
2022/07/14 02:26:24;;;;;;;;;;;;;;;;;;4996685;28;1499;-75
2022/07/14 02:28:52;;;;;;;;;;;;;;;;;;4992937;28;1615;-76
2022/07/14 02:31:18;;;;;;;;;;;;;;;;;;5015678;28;1954;-77
2022/07/14 02:33:45;;;;;;;;;;;;;;;;;;4999568;28;1365;-76
2022/07/14 02:36:12;;;;;;;;;;;;;;;;;;4996972;28;1258;-75
2022/07/14 02:38:39;;;;;;;;;;;;;;;;;;5010514;28;755;-77
2022/07/14 02:41:06;;;;;;;;;;;;;;;;;;4984433;28;1048;-75
2022/07/14 02:43:32;;;;;;;;;;;;;;;;;;4998794;28;1353;-76
2022/07/14 02:46:01;;;;;;;;;;;;;;;;;;4995159;28;1128;-75
2022/07/14 02:48:27;;;;;;;;;;;;;;;;;;5014756;28;1889;-76
2022/07/14 02:50:58;;;;;;;;;;;;;;;;;;4992138;28;1448;-77
2022/07/14 02:53:25;;;;;;;;;;;;;;;;;;5012917;28;2007;-78
2022/07/14 02:55:53;;;;;;;;;;;;;;;;;;4994561;28;1318;-74
2022/07/14 02:58:20;;;;;;;;;;;;;;;;;;5005501;28;864;-76
2022/07/14 03:00:46;;;;;;;;;;;;;;;;;;5013164;28;794;-76
2022/07/14 03:03:14;;;;;;;;;;;;;;;;;;5015065;28;1446;-76
2022/07/14 03:05:41;;;;;;;;;;;;;;;;;;5011089;28;1793;-75
2022/07/14 03:08:08;;;;;;;;;;;;;;;;;;5010854;28;893;-75
2022/07/14 03:10:35;;;;;;;;;;;;;;;;;;4994799;28;1119;-75
2022/07/14 03:13:02;;;;;;;;;;;;;;;;;;4990531;28;2474;-77
2022/07/14 03:15:28;;;;;;;;;;;;;;;;;;4988111;28;900;-76
2022/07/14 03:17:55;;;;;;;;;;;;;;;;;;4979523;28;1075;-77
2022/07/14 03:20:24;;;;;;;;;;;;;;;;;;4990609;28;1275;-79
2022/07/14 03:22:51;;;;;;;;;;;;;;;;;;4995476;28;1318;-76
2022/07/14 03:25:22;;;;;;;;;;;;;;;;;;4990527;28;1220;-77
2022/07/14 03:27:48;;;;;;;;;;;;;;;;;;4994970;28;870;-76
2022/07/14 03:30:16;;;;;;;;;;;;;;;;;;4988452;28;1362;-76
2022/07/14 03:32:43;;;;;;;;;;;;;;;;;;4984739;28;1945;-77
2022/07/14 03:35:09;;;;;;;;;;;;;;;;;;4968386;28;977;-76
2022/07/14 03:37:40;;;;;;;;;;;;;;;;;;4993936;28;1552;-76
2022/07/14 03:40:07;;;;;;;;;;;;;;;;;;4972562;28;1513;-76
2022/07/14 03:42:34;;;;;;;;;;;;;;;;;;4991170;28;1336;-75
2022/07/14 03:45:01;;;;;;;;;;;;;;;;;;4995408;28;1093;-76
2022/07/14 03:47:28;;;;;;;;;;;;;;;;;;4987972;28;987;-76
2022/07/14 03:49:55;;;;;;;;;;;;;;;;;;4990610;28;983;-78
2022/07/14 03:52:22;;;;;;;;;;;;;;;;;;4983665;28;2021;-76
2022/07/14 03:54:51;;;;;;;;;;;;;;;;;;4991360;28;1237;-76
2022/07/14 03:57:20;;;;;;;;;;;;;;;;;;4991084;28;1248;-77
2022/07/14 03:59:48;;;;;;;;;;;;;;;;;;4994253;28;1531;-78
2022/07/14 04:02:16;;;;;;;;;;;;;;;;;;4990228;28;1353;-77
2022/07/14 04:04:42;;;;;;;;;;;;;;;;;;4987565;28;1208;-76
2022/07/14 04:07:10;;;;;;;;;;;;;;;;;;4989881;28;1265;-78
2022/07/14 04:09:37;;;;;;;;;;;;;;;;;;4966222;28;1173;-77
2022/07/14 04:12:05;;;;;;;;;;;;;;;;;;4989414;28;1937;-76
2022/07/14 04:14:33;;;;;;;;;;;;;;;;;;4993812;28;1375;-76
2022/07/14 04:17:00;;;;;;;;;;;;;;;;;;4994227;28;1103;-77
2022/07/14 04:19:26;;;;;;;;;;;;;;;;;;4993658;28;1397;-77
2022/07/14 04:21:53;;;;;;;;;;;;;;;;;;4998981;28;780;-78
2022/07/14 04:24:20;;;;;;;;;;;;;;;;;;4977042;28;1293;-76
2022/07/14 04:26:46;;;;;;;;;;;;;;;;;;4971357;28;1459;-76
2022/07/14 04:29:15;;;;;;;;;;;;;;;;;;4980856;28;1078;-77
2022/07/14 04:31:42;;;;;;;;;;;;;;;;;;4975968;28;1327;-77
2022/07/14 04:34:13;;;;;;;;;;;;;;;;;;5002598;28;1937;-75
2022/07/14 04:36:39;;;;;;;;;;;;;;;;;;4997189;28;1006;-76
2022/07/14 04:39:09;;;;;;;;;;;;;;;;;;4996913;28;1702;-75
2022/07/14 04:41:37;;;;;;;;;;;;;;;;;;4988317;28;1497;-75
2022/07/14 04:44:04;;;;;;;;;;;;;;;;;;4985275;28;1459;-76
2022/07/14 04:46:32;;;;;;;;;;;;;;;;;;5016809;28;1691;-76
2022/07/14 04:52:03;;;;;;;;;;;;;;;;;;5014330;28;861;-76
2022/07/14 04:54:45;;;;;;;;;;;;;;;;;;5033171;28;1080;-75
2022/07/14 04:57:36;;;;;;;;;;;;;;;;;;5014446;28;901;-75
2022/07/14 05:00:07;;;;;;;;;;;;;;;;;;4993137;28;1786;-76
2022/07/14 05:02:36;;;;;;;;;;;;;;;;;;4996996;28;1678;-76
2022/07/14 05:05:04;;;;;;;;;;;;;;;;;;4998102;28;1478;-75
2022/07/14 05:07:33;;;;;;;;;;;;;;;;;;4997366;28;1118;-77
2022/07/14 05:10:01;;;;;;;;;;;;;;;;;;4995045;28;1573;-76
2022/07/14 05:12:29;;;;;;;;;;;;;;;;;;4995806;28;2020;-75
2022/07/14 05:14:57;;;;;;;;;;;;;;;;;;4996192;28;1442;-75
2022/07/14 05:17:24;;;;;;;;;;;;;;;;;;5014147;28;1481;-75
2022/07/14 05:19:59;;;;;;;;;;;;;;;;;;5036333;28;1468;-74
2022/07/14 05:22:26;;;;;;;;;;;;;;;;;;5068573;28;1498;-73
2022/07/14 05:24:52;;;;;;;;;;;;;;;;;;5068535;28;1360;-72
2022/07/14 05:27:20;;;;;;;;;;;;;;;;;;5067672;28;1394;-74
2022/07/14 05:29:46;;;;;;;;;;;;;;;;;;5078186;28;1400;-74
2022/07/14 05:32:14;;;;;;;;;;;;;;;;;;5068223;28;1902;-75
2022/07/14 05:34:40;;;;;;;;;;;;;;;;;;5058981;28;1413;-73
2022/07/14 05:37:08;;;;;;;;;;;;;;;;;;5088622;28;1511;-73
2022/07/14 05:39:34;;;;;;;;;;;;;;;;;;5067059;28;1456;-73
2022/07/14 05:42:01;;;;;;;;;;;;;;;;;;5075495;28;1465;-73
2022/07/14 05:44:28;;;;;;;;;;;;;;;;;;5071480;28;1381;-73
2022/07/14 05:46:54;;;;;;;;;;;;;;;;;;5067414;28;1410;-74
2022/07/14 05:49:21;;;;;;;;;;;;;;;;;;5066856;28;1450;-74
2022/07/14 05:51:47;;;;;;;;;;;;;;;;;;5067421;28;1353;-75
2022/07/14 05:54:16;;;;;;;;;;;;;;;;;;5066511;28;1976;-73
2022/07/14 05:56:42;;;;;;;;;;;;;;;;;;5095811;28;1453;-72
2022/07/14 05:59:09;;;;;;;;;;;;;;;;;;5074471;28;1487;-74
2022/07/14 06:01:35;;;;;;;;;;;;;;;;;;5076322;28;1432;-73
2022/07/14 06:04:02;;;;;;;;;;;;;;;;;;5074910;28;1478;-73
2022/07/14 06:06:30;;;;;;;;;;;;;;;;;;5071318;28;1469;-73
2022/07/14 06:08:56;;;;;;;;;;;;;;;;;;5081210;28;1409;-73
2022/07/14 06:11:24;;;;;;;;;;;;;;;;;;5061564;28;1365;-73
2022/07/14 06:13:50;;;;;;;;;;;;;;;;;;5062251;28;1918;-73
2022/07/14 06:16:17;;;;;;;;;;;;;;;;;;5060432;28;1287;-73
2022/07/14 06:18:43;;;;;;;;;;;;;;;;;;5066729;28;1389;-73
2022/07/14 06:21:10;;;;;;;;;;;;;;;;;;5072702;28;1304;-72
2022/07/14 06:23:36;;;;;;;;;;;;;;;;;;5072093;28;1408;-74
2022/07/14 06:26:07;;;;;;;;;;;;;;;;;;5089927;28;1650;-74
2022/07/14 06:28:37;;;;;;;;;;;;;;;;;;5073483;28;1521;-73
2022/07/14 06:31:03;;;;;;;;;;;;;;;;;;5072703;28;1819;-73
2022/07/14 06:33:29;;;;;;;;;;;;;;;;;;5090055;28;1977;-71
2022/07/14 06:36:00;;;;;;;;;;;;;;;;;;5072446;28;1464;-73
2022/07/14 06:38:27;;;;;;;;;;;;;;;;;;5071409;28;1247;-73
2022/07/14 06:40:53;;;;;;;;;;;;;;;;;;5073248;28;1212;-73
2022/07/14 06:43:19;;;;;;;;;;;;;;;;;;5066820;28;1652;-73
2022/07/14 06:45:53;;;;;;;;;;;;;;;;;;5076981;28;1302;-73
2022/07/14 06:48:21;;;;;;;;;;;;;;;;;;5092340;28;1185;-73
2022/07/14 06:50:48;;;;;;;;;;;;;;;;;;5076786;28;1190;-73
2022/07/14 06:53:15;;;;;;;;;;;;;;;;;;5072042;28;1975;-74
2022/07/14 06:55:41;;;;;;;;;;;;;;;;;;5089015;28;1107;-74
2022/07/14 06:58:08;;;;;;;;;;;;;;;;;;5071416;28;1452;-72
2022/07/14 07:00:34;;;;;;;;;;;;;;;;;;5089625;28;1454;-73
2022/07/14 07:03:01;;;;;;;;;;;;;;;;;;5074414;28;1695;-74
2022/07/14 07:08:13;;;;;;;;;;;;;;;;;;5110237;28;960;-72
2022/07/14 07:10:41;;;;;;;;;;;;;;;;;;5102384;28;1561;-74
2022/07/14 07:13:07;;;;;;;;;;;;;;;;;;5084891;28;1938;-73
2022/07/14 07:15:36;;;;;;;;;;;;;;;;;;5087691;28;1187;-73
2022/07/14 07:18:06;;;;;;;;;;;;;;;;;;5070381;28;1344;-74
2022/07/14 07:20:32;;;;;;;;;;;;;;;;;;5100770;28;1107;-72
2022/07/14 07:22:58;;;;;;;;;;;;;;;;;;5091856;28;1342;-73
2022/07/14 07:25:25;;;;;;;;;;;;;;;;;;5103561;28;1485;-73
2022/07/14 07:27:51;;;;;;;;;;;;;;;;;;5097395;28;1357;-72
2022/07/14 07:30:17;;;;;;;;;;;;;;;;;;5083552;28;1180;-72
2022/07/14 07:32:43;;;;;;;;;;;;;;;;;;5088868;28;1402;-72
2022/07/14 07:35:11;;;;;;;;;;;;;;;;;;5088150;28;1957;-73
2022/07/14 07:37:37;;;;;;;;;;;;;;;;;;5097604;28;1090;-73
2022/07/14 07:40:04;;;;;;;;;;;;;;;;;;5075200;28;1429;-72
2022/07/14 07:42:30;;;;;;;;;;;;;;;;;;5094709;28;1491;-70
2022/07/14 07:44:57;;;;;;;;;;;;;;;;;;5096331;28;1462;-73
2022/07/14 07:47:24;;;;;;;;;;;;;;;;;;5098579;28;1560;-72
2022/07/14 07:49:50;;;;;;;;;;;;;;;;;;5104443;28;1055;-73
2022/07/14 07:52:18;;;;;;;;;;;;;;;;;;5093989;28;1397;-70
2022/07/14 07:54:44;;;;;;;;;;;;;;;;;;5072714;28;1979;-73
2022/07/14 07:57:10;;;;;;;;;;;;;;;;;;5103324;28;1181;-74
2022/07/14 07:59:37;;;;;;;;;;;;;;;;;;5080974;28;1874;-73
2022/07/14 08:02:03;;;;;;;;;;;;;;;;;;5093308;28;1180;-73
2022/07/14 08:04:29;;;;;;;;;;;;;;;;;;5092380;28;1407;-74
2022/07/14 08:06:55;;;;;;;;;;;;;;;;;;5098734;28;1687;-74
2022/07/14 08:09:23;;;;;;;;;;;;;;;;;;5103933;28;1465;-74
2022/07/14 08:11:49;;;;;;;;;;;;;;;;;;5095312;28;1467;-74
2022/07/14 08:16:59;;;;;;;;;;;;;;;;;;5091098;28;1419;-73
2022/07/14 08:19:26;;;;;;;;;;;;;;;;;;5095914;28;1458;-73
2022/07/14 08:21:52;;;;;;;;;;;;;;;;;;5090302;28;1130;-73
2022/07/14 08:24:18;;;;;;;;;;;;;;;;;;5093196;28;1718;-73
2022/07/14 08:26:46;;;;;;;;;;;;;;;;;;5091589;28;1482;-73
2022/07/14 08:29:12;;;;;;;;;;;;;;;;;;5094777;28;1518;-75
2022/07/14 08:31:38;;;;;;;;;;;;;;;;;;5105158;28;1266;-74
2022/07/14 08:34:05;;;;;;;;;;;;;;;;;;5100205;28;1967;-75
2022/07/14 08:36:31;;;;;;;;;;;;;;;;;;5105678;22;3791;-71
2022/07/14 08:38:57;;;;;;;;;;;;;;;;;;5091041;28;1716;-71
2022/07/14 08:41:23;;;;;;;;;;;;;;;;;;5090477;28;1688;-71
2022/07/14 08:43:51;;;;;;;;;;;;;;;;;;5073927;28;1757;-71
2022/07/14 08:46:18;;;;;;;;;;;;;;;;;;5096984;28;1639;-71
2022/07/14 08:48:45;;;;;;;;;;;;;;;;;;5095940;28;1626;-70
2022/07/14 08:51:11;;;;;;;;;;;;;;;;;;5096605;28;1451;-71
2022/07/14 08:53:37;;;;;;;;;;;;;;;;;;5102673;28;1909;-70
2022/07/14 08:56:04;;;;;;;;;;;;;;;;;;5094532;28;1632;-71
2022/07/14 08:58:30;;;;;;;;;;;;;;;;;;5099819;28;1753;-71
2022/07/14 09:00:58;;;;;;;;;;;;;;;;;;5109591;28;1129;-71
2022/07/14 09:03:24;;;;;;;;;;;;;;;;;;5113479;28;1111;-71
2022/07/14 09:05:51;;;;;;;;;;;;;;;;;;5094434;28;1340;-71
2022/07/14 09:08:17;;;;;;;;;;;;;;;;;;5095908;28;1781;-71
2022/07/14 09:10:44;;;;;;;;;;;;;;;;;;5104435;28;1184;-70
2022/07/14 09:13:11;;;;;;;;;;;;;;;;;;5094428;28;1631;-71
2022/07/14 09:15:46;;;;;;;;;;;;;;;;;;5101409;28;1984;-71
2022/07/14 09:18:20;;;;;;;;;;;;;;;;;;5106568;28;1682;-71
2022/07/14 09:20:46;;;;;;;;;;;;;;;;;;5101898;28;1469;-71
2022/07/14 09:23:12;;;;;;;;;;;;;;;;;;5097369;28;1432;-71
2022/07/14 09:25:38;;;;;;;;;;;;;;;;;;5102343;28;1698;-71
2022/07/14 09:28:06;;;;;;;;;;;;;;;;;;5100317;28;1507;-71
2022/07/14 09:30:33;;;;;;;;;;;;;;;;;;5096130;28;1124;-71
2022/07/14 09:33:00;;;;;;;;;;;;;;;;;;5090612;28;1100;-71
2022/07/14 09:35:28;;;;;;;;;;;;;;;;;;5090683;28;1914;-71
2022/07/14 09:37:55;;;;;;;;;;;;;;;;;;5086363;28;1430;-71
2022/07/14 09:40:26;;;;;;;;;;;;;;;;;;5099221;28;1556;-72
2022/07/14 09:42:53;;;;;;;;;;;;;;;;;;5103875;28;1469;-71
2022/07/14 09:45:20;;;;;;;;;;;;;;;;;;5091902;28;1330;-71
2022/07/14 09:47:53;;;;;;;;;;;;;;;;;;5090771;28;801;-71
2022/07/14 09:50:33;;;;;;;;;;;;;;;;;;5092600;28;1770;-70
2022/07/14 09:52:59;;;;;;;;;;;;;;;;;;5099945;28;1114;-71
2022/07/14 09:55:25;;;;;;;;;;;;;;;;;;5111917;28;1983;-71
2022/07/14 09:57:52;;;;;;;;;;;;;;;;;;5110762;28;1067;-71
2022/07/14 10:00:19;;;;;;;;;;;;;;;;;;5098843;28;1745;-71
2022/07/14 10:02:45;;;;;;;;;;;;;;;;;;5093658;28;1545;-71
2022/07/14 10:05:12;;;;;;;;;;;;;;;;;;5102009;28;1457;-71
2022/07/14 10:07:41;;;;;;;;;;;;;;;;;;5095816;28;1461;-71
2022/07/14 10:10:08;;;;;;;;;;;;;;;;;;5099937;28;1145;-71
2022/07/14 10:12:34;;;;;;;;;;;;;;;;;;5091137;28;945;-70
2022/07/14 10:15:03;;;;;;;;;;;;;;;;;;5093986;28;1969;-71
2022/07/14 10:17:29;;;;;;;;;;;;;;;;;;5105204;28;1791;-71
2022/07/14 10:19:55;;;;;;;;;;;;;;;;;;5105701;28;1484;-71
2022/07/14 10:22:21;;;;;;;;;;;;;;;;;;5094009;28;1778;-71
2022/07/14 10:24:49;;;;;;;;;;;;;;;;;;5098206;28;1720;-71
2022/07/14 10:27:15;;;;;;;;;;;;;;;;;;5094442;28;1750;-71
2022/07/14 10:29:41;;;;;;;;;;;;;;;;;;5102904;28;1295;-70
2022/07/14 10:32:18;;;;;;;;;;;;;;;;;;5104207;28;1133;-70
2022/07/14 10:34:45;;;;;;;;;;;;;;;;;;5079914;28;1975;-70
2022/07/14 10:37:14;;;;;;;;;;;;;;;;;;5091836;28;1321;-70
2022/07/14 10:39:42;;;;;;;;;;;;;;;;;;5096596;28;1532;-71
2022/07/14 10:42:12;;;;;;;;;;;;;;;;;;5094466;28;1532;-70
2022/07/14 10:44:40;;;;;;;;;;;;;;;;;;5076817;28;1476;-70
2022/07/14 10:47:07;;;;;;;;;;;;;;;;;;5100326;28;1576;-71
2022/07/14 10:49:49;;;;;;;;;;;;;;;;;;5099388;28;1724;-71
2022/07/14 10:52:24;;;;;;;;;;;;;;;;;;5086939;28;1820;-70
2022/07/14 10:54:50;;;;;;;;;;;;;;;;;;5090320;28;1923;-70
2022/07/14 10:57:18;;;;;;;;;;;;;;;;;;5087240;28;1889;-71
2022/07/14 10:59:44;;;;;;;;;;;;;;;;;;5089064;28;944;-71
2022/07/14 11:02:31;;;;;;;;;;;;;;;;;;5097814;28;1775;-71
2022/07/14 11:05:01;;;;;;;;;;;;;;;;;;5089803;28;1172;-71
2022/07/14 11:07:35;;;;;;;;;;;;;;;;;;5089895;28;1333;-71
2022/07/14 11:10:03;;;;;;;;;;;;;;;;;;5090119;28;1086;-71
2022/07/14 11:12:31;;;;;;;;;;;;;;;;;;5088103;28;1778;-71
2022/07/14 11:14:57;;;;;;;;;;;;;;;;;;5097922;28;1979;-71
2022/07/14 11:17:34;;;;;;;;;;;;;;;;;;5094643;28;1691;-71
2022/07/14 11:20:00;;;;;;;;;;;;;;;;;;5092176;28;1603;-72
2022/07/14 11:22:27;;;;;;;;;;;;;;;;;;5097093;28;1746;-71
2022/07/14 11:24:56;;;;;;;;;;;;;;;;;;5107036;28;1063;-71
2022/07/14 11:27:23;;;;;;;;;;;;;;;;;;5110054;28;1360;-72
2022/07/14 11:29:50;;;;;;;;;;;;;;;;;;5089523;28;1606;-72
2022/07/14 11:32:28;;;;;;;;;;;;;;;;;;5078518;28;1097;-73
2022/07/14 11:37:53;;;;;;;;;;;;;;;;;;5089746;28;1177;-72
2022/07/14 11:40:37;;;;;;;;;;;;;;;;;;5090401;28;754;-72
2022/07/14 11:43:22;;;;;;;;;;;;;;;;;;5097558;28;1786;-72
2022/07/14 11:45:56;;;;;;;;;;;;;;;;;;5106682;28;1348;-74
2022/07/14 11:48:22;;;;;;;;;;;;;;;;;;5109998;28;976;-73
2022/07/14 11:50:49;;;;;;;;;;;;;;;;;;5081628;28;1789;-73
2022/07/14 11:53:15;;;;;;;;;;;;;;;;;;5103231;28;1121;-73
2022/07/14 11:55:42;;;;;;;;;;;;;;;;;;5104915;28;1922;-72
2022/07/14 11:58:08;;;;;;;;;;;;;;;;;;5100709;28;1063;-72
2022/07/14 12:00:35;;;;;;;;;;;;;;;;;;5107380;28;1821;-72
2022/07/14 12:03:04;;;;;;;;;;;;;;;;;;5093920;28;1686;-72
2022/07/14 12:05:31;;;;;;;;;;;;;;;;;;5104124;28;1398;-72
2022/07/14 12:08:01;;;;;;;;;;;;;;;;;;5098901;28;1768;-72
2022/07/14 12:10:34;;;;;;;;;;;;;;;;;;5108072;28;1150;-72
2022/07/14 12:13:00;;;;;;;;;;;;;;;;;;5101197;28;1834;-72
2022/07/14 12:15:27;;;;;;;;;;;;;;;;;;5095501;28;1914;-72
2022/07/14 12:17:53;;;;;;;;;;;;;;;;;;5088726;28;767;-71
2022/07/14 12:20:21;;;;;;;;;;;;;;;;;;5089527;28;1024;-71
2022/07/14 12:22:51;;;;;;;;;;;;;;;;;;5097109;28;1758;-71
2022/07/14 12:25:24;;;;;;;;;;;;;;;;;;5096051;28;1321;-71
2022/07/14 12:27:50;;;;;;;;;;;;;;;;;;5101992;28;1114;-72
2022/07/14 12:30:17;;;;;;;;;;;;;;;;;;5095669;28;1421;-71
2022/07/14 12:32:44;;;;;;;;;;;;;;;;;;5078340;28;1510;-71
2022/07/14 12:35:10;;;;;;;;;;;;;;;;;;5096560;28;1975;-71
2022/07/14 12:37:38;;;;;;;;;;;;;;;;;;5089654;28;1723;-72
2022/07/14 12:40:05;;;;;;;;;;;;;;;;;;5101060;28;1443;-72
2022/07/14 12:42:31;;;;;;;;;;;;;;;;;;5092804;28;1142;-71
2022/07/14 12:44:58;;;;;;;;;;;;;;;;;;5092713;28;901;-71
2022/07/14 12:47:24;;;;;;;;;;;;;;;;;;5072924;28;1514;-72
2022/07/14 12:49:51;;;;;;;;;;;;;;;;;;5092082;28;1381;-72
2022/07/14 12:52:17;;;;;;;;;;;;;;;;;;5099261;28;1188;-72
2022/07/14 12:54:44;;;;;;;;;;;;;;;;;;5093685;28;1910;-72
2022/07/14 12:57:17;;;;;;;;;;;;;;;;;;5099289;28;1527;-71
2022/07/14 12:59:44;;;;;;;;;;;;;;;;;;5108457;28;1118;-73
2022/07/14 13:02:11;;;;;;;;;;;;;;;;;;5101259;28;889;-71
2022/07/14 13:04:38;;;;;;;;;;;;;;;;;;5090045;28;1961;-72
2022/07/14 13:07:14;;;;;;;;;;;;;;;;;;5099246;28;1473;-72
2022/07/14 13:09:41;;;;;;;;;;;;;;;;;;5112478;28;1033;-72
2022/07/14 13:12:22;;;;;;;;;;;;;;;;;;5112162;28;1445;-72
2022/07/14 13:14:59;;;;;;;;;;;;;;;;;;5083135;28;2032;-72
2022/07/14 13:17:44;;;;;;;;;;;;;;;;;;5111476;28;1418;-72
2022/07/14 13:20:25;;;;;;;;;;;;;;;;;;5110681;28;1248;-71
2022/07/14 13:22:55;;;;;;;;;;;;;;;;;;5069958;28;1554;-71
2022/07/14 13:25:21;;;;;;;;;;;;;;;;;;5090334;28;1634;-72
2022/07/14 13:27:47;;;;;;;;;;;;;;;;;;5099376;28;1146;-72
2022/07/14 13:30:15;;;;;;;;;;;;;;;;;;5095708;28;1446;-72
2022/07/14 13:32:41;;;;;;;;;;;;;;;;;;5110091;28;1122;-72
2022/07/14 13:35:08;;;;;;;;;;;;;;;;;;5108753;28;2024;-72
2022/07/14 13:37:34;;;;;;;;;;;;;;;;;;5085092;28;1022;-72
2022/07/14 13:40:00;;;;;;;;;;;;;;;;;;5091142;28;1311;-71
2022/07/14 13:42:26;;;;;;;;;;;;;;;;;;5091005;28;1115;-72
2022/07/14 13:44:52;;;;;;;;;;;;;;;;;;5090626;28;1494;-72
2022/07/14 13:47:20;;;;;;;;;;;;;;;;;;5096026;28;1403;-72
2022/07/14 13:52:30;;;;;;;;;;;;;;;;;;5093069;28;1066;-73
2022/07/14 13:54:56;;;;;;;;;;;;;;;;;;5087683;28;2012;-72
2022/07/14 13:57:22;;;;;;;;;;;;;;;;;;5100493;28;1345;-72
2022/07/14 13:59:48;;;;;;;;;;;;;;;;;;5080097;28;1255;-74
2022/07/14 14:02:15;;;;;;;;;;;;;;;;;;5111039;28;1063;-72
2022/07/14 14:04:42;;;;;;;;;;;;;;;;;;5111261;28;959;-73
2022/07/14 14:07:08;;;;;;;;;;;;;;;;;;5092354;28;1425;-72
2022/07/14 14:09:35;;;;;;;;;;;;;;;;;;5099617;28;1323;-72
2022/07/14 14:12:02;;;;;;;;;;;;;;;;;;5090408;28;1122;-72
2022/07/14 14:14:28;;;;;;;;;;;;;;;;;;5090923;28;989;-71
2022/07/14 14:16:55;;;;;;;;;;;;;;;;;;5071603;28;1906;-72
2022/07/14 14:19:21;;;;;;;;;;;;;;;;;;5090725;28;1463;-73
2022/07/14 14:21:49;;;;;;;;;;;;;;;;;;5102032;28;1596;-72
2022/07/14 14:24:16;;;;;;;;;;;;;;;;;;5087367;28;1427;-72
2022/07/14 14:26:43;;;;;;;;;;;;;;;;;;5094391;28;1491;-72
2022/07/14 14:29:10;;;;;;;;;;;;;;;;;;5070728;28;1543;-72
2022/07/14 14:31:37;;;;;;;;;;;;;;;;;;5098175;28;1290;-73
2022/07/14 14:34:03;;;;;;;;;;;;;;;;;;5070502;28;1462;-72
2022/07/14 14:36:30;;;;;;;;;;;;;;;;;;5097637;28;1921;-72
2022/07/14 14:38:57;;;;;;;;;;;;;;;;;;5089561;28;1077;-72
2022/07/14 14:41:23;;;;;;;;;;;;;;;;;;5090391;28;1020;-72
2022/07/14 14:43:50;;;;;;;;;;;;;;;;;;5086259;22;1975;-77
2022/07/14 14:46:16;;;;;;;;;;;;;;;;;;5050524;28;1426;-78
2022/07/14 14:48:42;;;;;;;;;;;;;;;;;;5069642;28;1092;-77
2022/07/14 14:51:08;;;;;;;;;;;;;;;;;;5049483;28;2223;-75
2022/07/14 14:53:34;;;;;;;;;;;;;;;;;;5069413;28;1404;-75
2022/07/14 14:56:02;;;;;;;;;;;;;;;;;;5068639;28;1924;-75
2022/07/14 14:58:28;;;;;;;;;;;;;;;;;;5068959;28;783;-74
2022/07/14 15:00:54;;;;;;;;;;;;;;;;;;5067841;28;1374;-75
2022/07/14 15:03:21;;;;;;;;;;;;;;;;;;5069493;28;1388;-75
2022/07/14 15:05:47;;;;;;;;;;;;;;;;;;5069524;28;906;-76
2022/07/14 15:08:13;;;;;;;;;;;;;;;;;;5067875;28;1445;-76
2022/07/14 15:10:39;;;;;;;;;;;;;;;;;;5068449;28;1508;-75
2022/07/14 15:13:07;;;;;;;;;;;;;;;;;;5069689;28;1401;-73
2022/07/14 15:15:33;;;;;;;;;;;;;;;;;;5068233;28;1966;-73
2022/07/14 15:17:59;;;;;;;;;;;;;;;;;;5068288;28;1255;-74
2022/07/14 15:20:25;;;;;;;;;;;;;;;;;;5066952;28;1649;-78
2022/07/14 15:22:52;;;;;;;;;;;;;;;;;;5068518;28;1453;-74
2022/07/14 15:25:19;;;;;;;;;;;;;;;;;;5068302;28;1441;-74
2022/07/14 15:27:45;;;;;;;;;;;;;;;;;;5047712;28;1629;-75
2022/07/14 15:30:13;;;;;;;;;;;;;;;;;;5064559;28;1429;-74
2022/07/14 15:32:39;;;;;;;;;;;;;;;;;;5050710;28;1471;-75
2022/07/14 15:35:05;;;;;;;;;;;;;;;;;;5050909;28;1373;-73
2022/07/14 15:37:31;;;;;;;;;;;;;;;;;;5068362;28;1910;-74
2022/07/14 15:42:42;;;;;;;;;;;;;;;;;;5066476;28;1398;-74
2022/07/14 15:45:08;;;;;;;;;;;;;;;;;;5066895;28;1483;-73
2022/07/14 15:47:37;;;;;;;;;;;;;;;;;;5068206;28;1153;-75
2022/07/14 15:50:03;;;;;;;;;;;;;;;;;;5069199;28;1445;-78
2022/07/14 15:52:29;;;;;;;;;;;;;;;;;;5069018;28;1459;-74
2022/07/14 15:54:55;;;;;;;;;;;;;;;;;;5068352;28;1176;-74
2022/07/14 15:57:22;;;;;;;;;;;;;;;;;;5049160;28;1914;-76
2022/07/14 15:59:48;;;;;;;;;;;;;;;;;;5048220;28;1403;-78
2022/07/14 16:02:14;;;;;;;;;;;;;;;;;;5043672;28;1641;-76
2022/07/14 16:04:42;;;;;;;;;;;;;;;;;;5068780;28;1399;-76
2022/07/14 16:07:08;;;;;;;;;;;;;;;;;;5068776;28;1307;-75
2022/07/14 16:09:34;;;;;;;;;;;;;;;;;;5071149;28;1153;-75
2022/07/14 16:12:00;;;;;;;;;;;;;;;;;;5073730;28;775;-75
2022/07/14 16:14:26;;;;;;;;;;;;;;;;;;5072391;28;1369;-75
2022/07/14 16:16:53;;;;;;;;;;;;;;;;;;5072556;28;2007;-78
2022/07/14 16:19:19;;;;;;;;;;;;;;;;;;5074019;28;1126;-75
2022/07/14 16:21:47;;;;;;;;;;;;;;;;;;5074093;28;917;-78
2022/07/14 16:24:13;;;;;;;;;;;;;;;;;;5074044;28;1408;-75
2022/07/14 16:26:39;;;;;;;;;;;;;;;;;;5054986;28;1277;-77
2022/07/14 16:29:06;;;;;;;;;;;;;;;;;;5073849;28;1001;-77
2022/07/14 16:31:32;;;;;;;;;;;;;;;;;;5052975;28;1455;-77
2022/07/14 16:33:58;;;;;;;;;;;;;;;;;;5070647;28;1438;-76
2022/07/14 16:36:25;;;;;;;;;;;;;;;;;;5023280;28;1993;-78
2022/07/14 16:38:55;;;;;;;;;;;;;;;;;;4979296;28;1016;-76
2022/07/14 16:41:21;;;;;;;;;;;;;;;;;;5002206;28;790;-79
2022/07/14 16:43:48;;;;;;;;;;;;;;;;;;4985429;28;1376;-79
2022/07/14 16:46:18;;;;;;;;;;;;;;;;;;4996707;28;1455;-78
2022/07/14 16:48:44;;;;;;;;;;;;;;;;;;4975881;28;1047;-79
2022/07/14 16:51:11;;;;;;;;;;;;;;;;;;5000317;28;885;-79
2022/07/14 16:53:37;;;;;;;;;;;;;;;;;;4982297;28;1499;-78
2022/07/14 16:56:06;;;;;;;;;;;;;;;;;;4976330;28;1950;-78
2022/07/14 16:58:32;;;;;;;;;;;;;;;;;;4997277;28;1055;-79
2022/07/14 17:00:59;;;;;;;;;;;;;;;;;;5006843;28;968;-76
2022/07/14 17:03:25;;;;;;;;;;;;;;;;;;4987848;28;1305;-76
2022/07/14 17:08:36;;;;;;;;;;;;;;;;;;5018684;28;1008;-78
2022/07/14 17:11:02;;;;;;;;;;;;;;;;;;5019874;28;861;-78
2022/07/14 17:13:30;;;;;;;;;;;;;;;;;;4988651;28;1384;-77
2022/07/14 17:15:57;;;;;;;;;;;;;;;;;;5003223;28;1942;-77
2022/07/14 17:18:23;;;;;;;;;;;;;;;;;;5049525;28;1147;-75
2022/07/14 17:20:49;;;;;;;;;;;;;;;;;;5071643;28;778;-74
2022/07/14 17:23:16;;;;;;;;;;;;;;;;;;5072776;28;1366;-75
2022/07/14 17:25:42;;;;;;;;;;;;;;;;;;5051221;28;1513;-74
2022/07/14 17:28:08;;;;;;;;;;;;;;;;;;5054075;28;1292;-74
2022/07/14 17:30:36;;;;;;;;;;;;;;;;;;5072777;28;1067;-74
2022/07/14 17:33:02;;;;;;;;;;;;;;;;;;5070078;28;1421;-74